sensor_id;sensor_type;location;lat;lon;timestamp;P1;durP1;ratioP1;P2;durP2;ratioP2
80891;SDS011;70343;51.530;5.050;2023-06-19T00:01:43;5.80;;;5.20;;
80891;SDS011;70343;51.530;5.050;2023-06-19T00:04:09;6.78;;;5.38;;
80891;SDS011;70343;51.530;5.050;2023-06-19T00:06:35;5.93;;;4.82;;
80891;SDS011;70343;51.530;5.050;2023-06-19T00:09:00;6.10;;;5.00;;
80891;SDS011;70343;51.530;5.050;2023-06-19T00:11:26;5.55;;;4.80;;
80891;SDS011;70343;51.530;5.050;2023-06-19T00:13:51;4.88;;;4.22;;
80891;SDS011;70343;51.530;5.050;2023-06-19T00:16:17;5.75;;;4.20;;
80891;SDS011;70343;51.530;5.050;2023-06-19T00:18:44;4.32;;;3.83;;
80891;SDS011;70343;51.530;5.050;2023-06-19T00:21:10;4.85;;;3.65;;
80891;SDS011;70343;51.530;5.050;2023-06-19T00:23:36;4.82;;;3.72;;
80891;SDS011;70343;51.530;5.050;2023-06-19T00:26:01;5.82;;;3.00;;
80891;SDS011;70343;51.530;5.050;2023-06-19T00:28:27;5.40;;;3.88;;
80891;SDS011;70343;51.530;5.050;2023-06-19T00:30:53;5.07;;;3.63;;
80891;SDS011;70343;51.530;5.050;2023-06-19T00:33:20;4.22;;;3.63;;
80891;SDS011;70343;51.530;5.050;2023-06-19T00:35:45;4.65;;;3.40;;
80891;SDS011;70343;51.530;5.050;2023-06-19T00:38:11;5.00;;;3.92;;
80891;SDS011;70343;51.530;5.050;2023-06-19T00:40:37;4.10;;;3.10;;
80891;SDS011;70343;51.530;5.050;2023-06-19T00:43:03;4.60;;;3.40;;
80891;SDS011;70343;51.530;5.050;2023-06-19T00:45:28;4.68;;;3.42;;
80891;SDS011;70343;51.530;5.050;2023-06-19T00:47:55;7.00;;;3.25;;
80891;SDS011;70343;51.530;5.050;2023-06-19T00:50:22;5.68;;;3.70;;
80891;SDS011;70343;51.530;5.050;2023-06-19T00:52:48;4.10;;;3.40;;
80891;SDS011;70343;51.530;5.050;2023-06-19T00:55:15;3.72;;;3.28;;
80891;SDS011;70343;51.530;5.050;2023-06-19T00:57:41;4.07;;;3.33;;
80891;SDS011;70343;51.530;5.050;2023-06-19T01:00:08;4.50;;;3.17;;
80891;SDS011;70343;51.530;5.050;2023-06-19T01:02:38;3.97;;;3.45;;
80891;SDS011;70343;51.530;5.050;2023-06-19T01:05:04;3.92;;;2.80;;
80891;SDS011;70343;51.530;5.050;2023-06-19T01:07:37;4.72;;;3.10;;
80891;SDS011;70343;51.530;5.050;2023-06-19T01:10:07;3.60;;;2.67;;
80891;SDS011;70343;51.530;5.050;2023-06-19T01:12:38;3.78;;;2.80;;
80891;SDS011;70343;51.530;5.050;2023-06-19T01:15:13;4.85;;;2.88;;
80891;SDS011;70343;51.530;5.050;2023-06-19T01:17:40;3.72;;;2.80;;
80891;SDS011;70343;51.530;5.050;2023-06-19T01:20:06;3.85;;;2.83;;
80891;SDS011;70343;51.530;5.050;2023-06-19T01:22:37;5.55;;;2.92;;
80891;SDS011;70343;51.530;5.050;2023-06-19T01:25:04;3.58;;;2.80;;
80891;SDS011;70343;51.530;5.050;2023-06-19T01:27:30;4.55;;;2.55;;
80891;SDS011;70343;51.530;5.050;2023-06-19T01:29:58;4.30;;;2.28;;
80891;SDS011;70343;51.530;5.050;2023-06-19T01:35:13;2.97;;;2.35;;
80891;SDS011;70343;51.530;5.050;2023-06-19T01:37:42;2.88;;;2.40;;
80891;SDS011;70343;51.530;5.050;2023-06-19T01:40:08;3.30;;;2.47;;
80891;SDS011;70343;51.530;5.050;2023-06-19T01:42:39;2.90;;;2.30;;
80891;SDS011;70343;51.530;5.050;2023-06-19T01:45:06;4.93;;;3.00;;
80891;SDS011;70343;51.530;5.050;2023-06-19T01:47:32;3.45;;;2.75;;
80891;SDS011;70343;51.530;5.050;2023-06-19T01:49:58;4.22;;;2.53;;
80891;SDS011;70343;51.530;5.050;2023-06-19T01:52:24;4.05;;;2.50;;
80891;SDS011;70343;51.530;5.050;2023-06-19T01:54:50;3.15;;;2.58;;
80891;SDS011;70343;51.530;5.050;2023-06-19T01:57:16;3.70;;;2.60;;
80891;SDS011;70343;51.530;5.050;2023-06-19T01:59:41;2.90;;;2.30;;
80891;SDS011;70343;51.530;5.050;2023-06-19T02:02:07;3.30;;;2.50;;
80891;SDS011;70343;51.530;5.050;2023-06-19T02:04:33;3.17;;;2.65;;
80891;SDS011;70343;51.530;5.050;2023-06-19T02:06:58;3.15;;;2.42;;
80891;SDS011;70343;51.530;5.050;2023-06-19T02:09:24;3.50;;;2.45;;
80891;SDS011;70343;51.530;5.050;2023-06-19T02:11:49;4.72;;;2.17;;
80891;SDS011;70343;51.530;5.050;2023-06-19T02:14:16;4.65;;;2.40;;
80891;SDS011;70343;51.530;5.050;2023-06-19T02:16:41;3.85;;;2.40;;
80891;SDS011;70343;51.530;5.050;2023-06-19T02:19:11;3.97;;;2.40;;
80891;SDS011;70343;51.530;5.050;2023-06-19T02:21:38;3.85;;;2.25;;
80891;SDS011;70343;51.530;5.050;2023-06-19T02:24:04;2.63;;;2.30;;
80891;SDS011;70343;51.530;5.050;2023-06-19T02:26:30;4.50;;;2.80;;
80891;SDS011;70343;51.530;5.050;2023-06-19T02:28:55;3.90;;;1.92;;
80891;SDS011;70343;51.530;5.050;2023-06-19T02:31:21;2.63;;;2.28;;
80891;SDS011;70343;51.530;5.050;2023-06-19T02:33:47;4.38;;;2.80;;
80891;SDS011;70343;51.530;5.050;2023-06-19T02:36:13;3.00;;;2.47;;
80891;SDS011;70343;51.530;5.050;2023-06-19T02:38:48;4.43;;;3.03;;
80891;SDS011;70343;51.530;5.050;2023-06-19T02:41:14;4.05;;;2.95;;
80891;SDS011;70343;51.530;5.050;2023-06-19T02:43:44;3.50;;;2.78;;
80891;SDS011;70343;51.530;5.050;2023-06-19T02:46:11;3.75;;;3.00;;
80891;SDS011;70343;51.530;5.050;2023-06-19T02:48:37;3.22;;;2.92;;
80891;SDS011;70343;51.530;5.050;2023-06-19T02:51:03;3.97;;;3.15;;
80891;SDS011;70343;51.530;5.050;2023-06-19T02:53:28;3.92;;;2.72;;
80891;SDS011;70343;51.530;5.050;2023-06-19T02:55:54;4.05;;;2.63;;
80891;SDS011;70343;51.530;5.050;2023-06-19T02:58:20;4.75;;;3.05;;
80891;SDS011;70343;51.530;5.050;2023-06-19T03:00:45;5.68;;;2.95;;
80891;SDS011;70343;51.530;5.050;2023-06-19T03:03:11;3.92;;;3.13;;
80891;SDS011;70343;51.530;5.050;2023-06-19T03:05:37;4.80;;;3.33;;
80891;SDS011;70343;51.530;5.050;2023-06-19T03:08:03;5.80;;;3.20;;
80891;SDS011;70343;51.530;5.050;2023-06-19T03:10:30;4.63;;;3.40;;
80891;SDS011;70343;51.530;5.050;2023-06-19T03:12:56;3.67;;;2.95;;
80891;SDS011;70343;51.530;5.050;2023-06-19T03:15:23;4.45;;;3.25;;
80891;SDS011;70343;51.530;5.050;2023-06-19T03:17:50;4.32;;;3.20;;
80891;SDS011;70343;51.530;5.050;2023-06-19T03:20:17;5.70;;;3.97;;
80891;SDS011;70343;51.530;5.050;2023-06-19T03:22:51;5.50;;;3.33;;
80891;SDS011;70343;51.530;5.050;2023-06-19T03:25:17;4.78;;;3.72;;
80891;SDS011;70343;51.530;5.050;2023-06-19T03:27:45;3.03;;;2.70;;
80891;SDS011;70343;51.530;5.050;2023-06-19T03:30:11;5.70;;;4.10;;
80891;SDS011;70343;51.530;5.050;2023-06-19T03:32:39;4.80;;;3.22;;
80891;SDS011;70343;51.530;5.050;2023-06-19T03:35:07;5.00;;;4.13;;
80891;SDS011;70343;51.530;5.050;2023-06-19T03:37:38;4.35;;;3.47;;
80891;SDS011;70343;51.530;5.050;2023-06-19T03:40:04;8.32;;;4.00;;
80891;SDS011;70343;51.530;5.050;2023-06-19T03:42:34;6.53;;;4.03;;
80891;SDS011;70343;51.530;5.050;2023-06-19T03:45:00;6.32;;;3.95;;
80891;SDS011;70343;51.530;5.050;2023-06-19T03:47:26;4.88;;;4.10;;
80891;SDS011;70343;51.530;5.050;2023-06-19T03:49:51;3.97;;;3.58;;
80891;SDS011;70343;51.530;5.050;2023-06-19T03:52:17;4.68;;;4.28;;
80891;SDS011;70343;51.530;5.050;2023-06-19T03:54:43;5.72;;;3.97;;
80891;SDS011;70343;51.530;5.050;2023-06-19T03:57:09;5.75;;;4.10;;
80891;SDS011;70343;51.530;5.050;2023-06-19T03:59:34;5.80;;;4.68;;
80891;SDS011;70343;51.530;5.050;2023-06-19T04:02:00;5.05;;;4.22;;
80891;SDS011;70343;51.530;5.050;2023-06-19T04:04:25;6.78;;;4.57;;
80891;SDS011;70343;51.530;5.050;2023-06-19T04:06:51;5.43;;;4.82;;
80891;SDS011;70343;51.530;5.050;2023-06-19T04:09:16;5.88;;;4.05;;
80891;SDS011;70343;51.530;5.050;2023-06-19T04:11:42;5.00;;;4.32;;
80891;SDS011;70343;51.530;5.050;2023-06-19T04:14:07;4.22;;;3.83;;
80891;SDS011;70343;51.530;5.050;2023-06-19T04:16:34;4.65;;;4.13;;
80891;SDS011;70343;51.530;5.050;2023-06-19T04:18:59;5.35;;;4.47;;
80891;SDS011;70343;51.530;5.050;2023-06-19T04:21:25;5.13;;;4.63;;
80891;SDS011;70343;51.530;5.050;2023-06-19T04:23:51;5.03;;;4.32;;
80891;SDS011;70343;51.530;5.050;2023-06-19T04:26:17;6.18;;;4.90;;
80891;SDS011;70343;51.530;5.050;2023-06-19T04:28:43;6.15;;;4.38;;
80891;SDS011;70343;51.530;5.050;2023-06-19T04:31:08;7.38;;;4.82;;
80891;SDS011;70343;51.530;5.050;2023-06-19T04:33:34;5.70;;;4.57;;
80891;SDS011;70343;51.530;5.050;2023-06-19T04:36:00;8.48;;;5.68;;
80891;SDS011;70343;51.530;5.050;2023-06-19T04:38:25;7.68;;;5.55;;
80891;SDS011;70343;51.530;5.050;2023-06-19T04:40:51;5.70;;;5.20;;
80891;SDS011;70343;51.530;5.050;2023-06-19T04:43:17;5.68;;;5.18;;
80891;SDS011;70343;51.530;5.050;2023-06-19T04:45:43;9.20;;;6.03;;
80891;SDS011;70343;51.530;5.050;2023-06-19T04:48:08;6.93;;;6.20;;
80891;SDS011;70343;51.530;5.050;2023-06-19T04:50:34;8.35;;;5.68;;
80891;SDS011;70343;51.530;5.050;2023-06-19T04:53:00;7.30;;;5.85;;
80891;SDS011;70343;51.530;5.050;2023-06-19T04:55:26;8.05;;;6.22;;
80891;SDS011;70343;51.530;5.050;2023-06-19T04:57:52;10.02;;;8.68;;
80891;SDS011;70343;51.530;5.050;2023-06-19T05:00:17;9.20;;;8.00;;
80891;SDS011;70343;51.530;5.050;2023-06-19T05:02:44;10.70;;;9.45;;
80891;SDS011;70343;51.530;5.050;2023-06-19T05:05:12;12.15;;;10.95;;
80891;SDS011;70343;51.530;5.050;2023-06-19T05:07:38;13.45;;;12.15;;
80891;SDS011;70343;51.530;5.050;2023-06-19T05:10:05;12.18;;;11.05;;
80891;SDS011;70343;51.530;5.050;2023-06-19T05:12:31;13.07;;;10.27;;
80891;SDS011;70343;51.530;5.050;2023-06-19T05:14:57;10.40;;;9.30;;
80891;SDS011;70343;51.530;5.050;2023-06-19T05:17:23;10.73;;;9.68;;
80891;SDS011;70343;51.530;5.050;2023-06-19T05:19:48;12.60;;;10.40;;
80891;SDS011;70343;51.530;5.050;2023-06-19T05:22:14;8.85;;;8.05;;
80891;SDS011;70343;51.530;5.050;2023-06-19T05:24:40;9.50;;;8.63;;
80891;SDS011;70343;51.530;5.050;2023-06-19T05:27:05;9.30;;;8.40;;
80891;SDS011;70343;51.530;5.050;2023-06-19T05:29:31;9.23;;;7.90;;
80891;SDS011;70343;51.530;5.050;2023-06-19T05:31:57;8.90;;;8.18;;
80891;SDS011;70343;51.530;5.050;2023-06-19T05:34:22;8.73;;;7.57;;
80891;SDS011;70343;51.530;5.050;2023-06-19T05:36:48;8.30;;;7.53;;
80891;SDS011;70343;51.530;5.050;2023-06-19T05:39:14;8.77;;;7.40;;
80891;SDS011;70343;51.530;5.050;2023-06-19T05:41:40;8.23;;;7.13;;
80891;SDS011;70343;51.530;5.050;2023-06-19T05:44:05;6.35;;;5.75;;
80891;SDS011;70343;51.530;5.050;2023-06-19T05:46:31;9.35;;;6.97;;
80891;SDS011;70343;51.530;5.050;2023-06-19T05:48:56;7.65;;;6.85;;
80891;SDS011;70343;51.530;5.050;2023-06-19T05:51:22;8.77;;;7.75;;
80891;SDS011;70343;51.530;5.050;2023-06-19T05:53:47;8.20;;;7.38;;
80891;SDS011;70343;51.530;5.050;2023-06-19T05:56:14;11.73;;;6.45;;
80891;SDS011;70343;51.530;5.050;2023-06-19T05:58:40;7.95;;;7.15;;
80891;SDS011;70343;51.530;5.050;2023-06-19T06:01:06;10.52;;;8.35;;
80891;SDS011;70343;51.530;5.050;2023-06-19T06:03:32;9.98;;;7.00;;
80891;SDS011;70343;51.530;5.050;2023-06-19T06:05:57;9.50;;;8.25;;
80891;SDS011;70343;51.530;5.050;2023-06-19T06:08:30;9.75;;;8.88;;
80891;SDS011;70343;51.530;5.050;2023-06-19T06:10:57;9.65;;;8.65;;
80891;SDS011;70343;51.530;5.050;2023-06-19T06:13:22;9.70;;;8.73;;
80891;SDS011;70343;51.530;5.050;2023-06-19T06:15:48;9.82;;;8.45;;
80891;SDS011;70343;51.530;5.050;2023-06-19T06:18:14;10.20;;;9.20;;
80891;SDS011;70343;51.530;5.050;2023-06-19T06:20:40;9.32;;;8.43;;
80891;SDS011;70343;51.530;5.050;2023-06-19T06:23:05;11.57;;;8.15;;
80891;SDS011;70343;51.530;5.050;2023-06-19T06:25:31;9.65;;;8.52;;
80891;SDS011;70343;51.530;5.050;2023-06-19T06:27:56;10.25;;;8.23;;
80891;SDS011;70343;51.530;5.050;2023-06-19T06:30:22;9.48;;;8.07;;
80891;SDS011;70343;51.530;5.050;2023-06-19T06:32:48;9.90;;;8.45;;
80891;SDS011;70343;51.530;5.050;2023-06-19T06:35:15;9.95;;;9.05;;
80891;SDS011;70343;51.530;5.050;2023-06-19T06:37:40;10.00;;;9.10;;
80891;SDS011;70343;51.530;5.050;2023-06-19T06:40:06;10.88;;;9.88;;
80891;SDS011;70343;51.530;5.050;2023-06-19T06:42:36;13.45;;;12.20;;
80891;SDS011;70343;51.530;5.050;2023-06-19T06:45:03;13.90;;;12.70;;
80891;SDS011;70343;51.530;5.050;2023-06-19T06:47:30;13.02;;;11.82;;
80891;SDS011;70343;51.530;5.050;2023-06-19T06:49:56;11.35;;;10.35;;
80891;SDS011;70343;51.530;5.050;2023-06-19T06:52:21;12.88;;;11.77;;
80891;SDS011;70343;51.530;5.050;2023-06-19T06:54:47;11.60;;;10.50;;
80891;SDS011;70343;51.530;5.050;2023-06-19T06:57:12;10.82;;;9.82;;
80891;SDS011;70343;51.530;5.050;2023-06-19T06:59:38;9.63;;;8.68;;
80891;SDS011;70343;51.530;5.050;2023-06-19T07:02:03;11.45;;;10.55;;
80891;SDS011;70343;51.530;5.050;2023-06-19T07:04:29;12.00;;;10.95;;
80891;SDS011;70343;51.530;5.050;2023-06-19T07:06:54;12.90;;;11.90;;
80891;SDS011;70343;51.530;5.050;2023-06-19T07:09:20;11.13;;;10.23;;
80891;SDS011;70343;51.530;5.050;2023-06-19T07:11:46;12.00;;;10.90;;
80891;SDS011;70343;51.530;5.050;2023-06-19T07:14:12;12.38;;;11.27;;
80891;SDS011;70343;51.530;5.050;2023-06-19T07:16:37;12.60;;;11.50;;
80891;SDS011;70343;51.530;5.050;2023-06-19T07:19:02;11.20;;;10.15;;
80891;SDS011;70343;51.530;5.050;2023-06-19T07:21:28;12.27;;;11.15;;
80891;SDS011;70343;51.530;5.050;2023-06-19T07:23:55;11.32;;;10.23;;
80891;SDS011;70343;51.530;5.050;2023-06-19T07:26:21;12.18;;;10.98;;
80891;SDS011;70343;51.530;5.050;2023-06-19T07:28:46;11.48;;;10.38;;
80891;SDS011;70343;51.530;5.050;2023-06-19T07:31:12;14.55;;;10.90;;
80891;SDS011;70343;51.530;5.050;2023-06-19T07:33:38;12.73;;;11.52;;
80891;SDS011;70343;51.530;5.050;2023-06-19T07:36:04;12.90;;;11.77;;
80891;SDS011;70343;51.530;5.050;2023-06-19T07:38:29;12.77;;;11.57;;
80891;SDS011;70343;51.530;5.050;2023-06-19T07:40:55;12.50;;;11.38;;
80891;SDS011;70343;51.530;5.050;2023-06-19T07:43:20;13.52;;;12.05;;
80891;SDS011;70343;51.530;5.050;2023-06-19T07:45:49;10.98;;;10.00;;
80891;SDS011;70343;51.530;5.050;2023-06-19T07:48:15;12.25;;;11.05;;
80891;SDS011;70343;51.530;5.050;2023-06-19T07:50:41;12.63;;;11.43;;
80891;SDS011;70343;51.530;5.050;2023-06-19T07:53:06;14.77;;;11.25;;
80891;SDS011;70343;51.530;5.050;2023-06-19T07:55:32;11.82;;;10.82;;
80891;SDS011;70343;51.530;5.050;2023-06-19T07:58:00;12.80;;;11.55;;
80891;SDS011;70343;51.530;5.050;2023-06-19T08:00:25;16.27;;;11.55;;
80891;SDS011;70343;51.530;5.050;2023-06-19T08:02:51;12.30;;;11.02;;
80891;SDS011;70343;51.530;5.050;2023-06-19T08:05:16;12.77;;;11.55;;
80891;SDS011;70343;51.530;5.050;2023-06-19T08:07:42;11.88;;;10.68;;
80891;SDS011;70343;51.530;5.050;2023-06-19T08:10:07;14.00;;;10.80;;
80891;SDS011;70343;51.530;5.050;2023-06-19T08:12:33;13.23;;;11.90;;
80891;SDS011;70343;51.530;5.050;2023-06-19T08:14:59;12.25;;;11.05;;
80891;SDS011;70343;51.530;5.050;2023-06-19T08:17:25;13.57;;;10.93;;
80891;SDS011;70343;51.530;5.050;2023-06-19T08:19:50;12.43;;;11.20;;
80891;SDS011;70343;51.530;5.050;2023-06-19T08:22:16;12.48;;;11.32;;
80891;SDS011;70343;51.530;5.050;2023-06-19T08:24:41;13.02;;;11.05;;
80891;SDS011;70343;51.530;5.050;2023-06-19T08:27:07;14.27;;;10.93;;
80891;SDS011;70343;51.530;5.050;2023-06-19T08:29:33;11.68;;;10.55;;
80891;SDS011;70343;51.530;5.050;2023-06-19T08:31:58;13.32;;;12.13;;
80891;SDS011;70343;51.530;5.050;2023-06-19T08:34:24;13.32;;;12.02;;
80891;SDS011;70343;51.530;5.050;2023-06-19T08:36:51;12.00;;;10.90;;
80891;SDS011;70343;51.530;5.050;2023-06-19T08:39:16;13.25;;;11.23;;
80891;SDS011;70343;51.530;5.050;2023-06-19T08:41:42;13.25;;;10.52;;
80891;SDS011;70343;51.530;5.050;2023-06-19T08:44:08;11.43;;;10.27;;
80891;SDS011;70343;51.530;5.050;2023-06-19T08:46:34;12.52;;;11.25;;
80891;SDS011;70343;51.530;5.050;2023-06-19T08:49:02;10.73;;;9.73;;
80891;SDS011;70343;51.530;5.050;2023-06-19T08:51:28;11.40;;;10.40;;
80891;SDS011;70343;51.530;5.050;2023-06-19T08:54:00;16.70;;;11.70;;
80891;SDS011;70343;51.530;5.050;2023-06-19T08:56:30;12.38;;;10.82;;
80891;SDS011;70343;51.530;5.050;2023-06-19T08:59:12;13.48;;;11.52;;
80891;SDS011;70343;51.530;5.050;2023-06-19T09:01:39;12.68;;;11.48;;
80891;SDS011;70343;51.530;5.050;2023-06-19T09:04:11;13.13;;;11.93;;
80891;SDS011;70343;51.530;5.050;2023-06-19T09:09:16;13.30;;;12.10;;
80891;SDS011;70343;51.530;5.050;2023-06-19T09:14:36;13.85;;;12.55;;
80891;SDS011;70343;51.530;5.050;2023-06-19T09:17:13;13.80;;;12.38;;
80891;SDS011;70343;51.530;5.050;2023-06-19T09:19:47;13.43;;;12.05;;
80891;SDS011;70343;51.530;5.050;2023-06-19T09:22:17;13.57;;;11.40;;
80891;SDS011;70343;51.530;5.050;2023-06-19T09:24:45;13.32;;;11.45;;
80891;SDS011;70343;51.530;5.050;2023-06-19T09:29:42;14.63;;;12.93;;
80891;SDS011;70343;51.530;5.050;2023-06-19T09:34:45;14.30;;;12.85;;
80891;SDS011;70343;51.530;5.050;2023-06-19T09:37:12;14.60;;;12.20;;
80891;SDS011;70343;51.530;5.050;2023-06-19T09:39:38;13.65;;;11.48;;
80891;SDS011;70343;51.530;5.050;2023-06-19T09:42:06;12.00;;;10.65;;
80891;SDS011;70343;51.530;5.050;2023-06-19T09:44:39;31.83;;;12.57;;
80891;SDS011;70343;51.530;5.050;2023-06-19T09:47:13;14.75;;;13.15;;
80891;SDS011;70343;51.530;5.050;2023-06-19T09:49:55;12.75;;;11.45;;
80891;SDS011;70343;51.530;5.050;2023-06-19T09:52:21;13.13;;;11.65;;
80891;SDS011;70343;51.530;5.050;2023-06-19T09:54:52;13.60;;;9.52;;
80891;SDS011;70343;51.530;5.050;2023-06-19T09:57:19;10.82;;;9.38;;
80891;SDS011;70343;51.530;5.050;2023-06-19T09:59:55;12.02;;;10.82;;
80891;SDS011;70343;51.530;5.050;2023-06-19T10:02:21;11.68;;;10.23;;
80891;SDS011;70343;51.530;5.050;2023-06-19T10:04:50;12.55;;;9.90;;
80891;SDS011;70343;51.530;5.050;2023-06-19T10:07:21;11.40;;;10.25;;
80891;SDS011;70343;51.530;5.050;2023-06-19T10:10:07;12.98;;;9.60;;
80891;SDS011;70343;51.530;5.050;2023-06-19T10:12:46;12.82;;;9.68;;
80891;SDS011;70343;51.530;5.050;2023-06-19T10:15:12;11.82;;;10.25;;
80891;SDS011;70343;51.530;5.050;2023-06-19T10:17:46;11.63;;;8.88;;
80891;SDS011;70343;51.530;5.050;2023-06-19T10:20:35;11.00;;;8.13;;
80891;SDS011;70343;51.530;5.050;2023-06-19T10:23:10;10.57;;;8.88;;
80891;SDS011;70343;51.530;5.050;2023-06-19T10:25:37;8.55;;;7.60;;
80891;SDS011;70343;51.530;5.050;2023-06-19T10:28:04;10.90;;;9.63;;
80891;SDS011;70343;51.530;5.050;2023-06-19T10:30:42;10.20;;;9.10;;
80891;SDS011;70343;51.530;5.050;2023-06-19T10:33:07;11.63;;;9.75;;
80891;SDS011;70343;51.530;5.050;2023-06-19T10:35:39;10.57;;;9.57;;
80891;SDS011;70343;51.530;5.050;2023-06-19T10:38:06;9.70;;;8.73;;
80891;SDS011;70343;51.530;5.050;2023-06-19T10:40:35;8.95;;;8.10;;
80891;SDS011;70343;51.530;5.050;2023-06-19T10:43:01;11.73;;;9.70;;
80891;SDS011;70343;51.530;5.050;2023-06-19T10:45:27;14.43;;;9.43;;
80891;SDS011;70343;51.530;5.050;2023-06-19T10:47:54;10.00;;;8.98;;
80891;SDS011;70343;51.530;5.050;2023-06-19T10:50:20;9.05;;;8.23;;
80891;SDS011;70343;51.530;5.050;2023-06-19T10:52:46;10.63;;;9.15;;
80891;SDS011;70343;51.530;5.050;2023-06-19T10:55:14;9.48;;;8.05;;
80891;SDS011;70343;51.530;5.050;2023-06-19T10:57:45;9.07;;;8.10;;
80891;SDS011;70343;51.530;5.050;2023-06-19T11:00:21;9.02;;;7.60;;
80891;SDS011;70343;51.530;5.050;2023-06-19T11:02:51;8.90;;;7.85;;
80891;SDS011;70343;51.530;5.050;2023-06-19T11:05:19;9.27;;;7.57;;
80891;SDS011;70343;51.530;5.050;2023-06-19T11:07:54;9.68;;;8.27;;
80891;SDS011;70343;51.530;5.050;2023-06-19T11:10:22;9.43;;;8.32;;
80891;SDS011;70343;51.530;5.050;2023-06-19T11:12:50;8.63;;;7.32;;
80891;SDS011;70343;51.530;5.050;2023-06-19T11:15:19;10.32;;;8.27;;
80891;SDS011;70343;51.530;5.050;2023-06-19T11:17:45;11.40;;;8.00;;
80891;SDS011;70343;51.530;5.050;2023-06-19T11:20:11;9.27;;;8.00;;
80891;SDS011;70343;51.530;5.050;2023-06-19T11:22:43;9.32;;;8.10;;
80891;SDS011;70343;51.530;5.050;2023-06-19T11:25:09;8.38;;;7.57;;
80891;SDS011;70343;51.530;5.050;2023-06-19T11:27:37;10.52;;;7.90;;
80891;SDS011;70343;51.530;5.050;2023-06-19T11:30:04;7.68;;;6.75;;
80891;SDS011;70343;51.530;5.050;2023-06-19T11:32:33;7.10;;;6.40;;
80891;SDS011;70343;51.530;5.050;2023-06-19T11:35:10;7.85;;;6.35;;
80891;SDS011;70343;51.530;5.050;2023-06-19T11:37:39;8.73;;;7.32;;
80891;SDS011;70343;51.530;5.050;2023-06-19T11:40:07;8.85;;;7.95;;
80891;SDS011;70343;51.530;5.050;2023-06-19T11:42:45;8.60;;;7.80;;
80891;SDS011;70343;51.530;5.050;2023-06-19T11:45:11;11.25;;;8.30;;
80891;SDS011;70343;51.530;5.050;2023-06-19T11:47:37;8.15;;;7.25;;
80891;SDS011;70343;51.530;5.050;2023-06-19T11:50:03;8.88;;;6.90;;
80891;SDS011;70343;51.530;5.050;2023-06-19T11:52:30;8.27;;;7.43;;
80891;SDS011;70343;51.530;5.050;2023-06-19T11:54:56;8.45;;;6.80;;
80891;SDS011;70343;51.530;5.050;2023-06-19T11:57:21;8.05;;;6.60;;
80891;SDS011;70343;51.530;5.050;2023-06-19T11:59:47;6.78;;;6.15;;
80891;SDS011;70343;51.530;5.050;2023-06-19T12:02:13;8.25;;;6.50;;
80891;SDS011;70343;51.530;5.050;2023-06-19T12:04:38;8.65;;;5.95;;
80891;SDS011;70343;51.530;5.050;2023-06-19T12:07:04;8.13;;;5.68;;
80891;SDS011;70343;51.530;5.050;2023-06-19T12:09:30;8.57;;;6.45;;
80891;SDS011;70343;51.530;5.050;2023-06-19T12:11:59;6.60;;;5.97;;
80891;SDS011;70343;51.530;5.050;2023-06-19T12:14:26;6.65;;;5.35;;
80891;SDS011;70343;51.530;5.050;2023-06-19T12:16:51;6.38;;;5.57;;
80891;SDS011;70343;51.530;5.050;2023-06-19T12:19:17;6.25;;;5.63;;
80891;SDS011;70343;51.530;5.050;2023-06-19T12:21:43;6.47;;;5.70;;
80891;SDS011;70343;51.530;5.050;2023-06-19T12:24:08;8.00;;;5.72;;
80891;SDS011;70343;51.530;5.050;2023-06-19T12:26:35;6.72;;;5.45;;
80891;SDS011;70343;51.530;5.050;2023-06-19T12:29:05;6.38;;;5.78;;
80891;SDS011;70343;51.530;5.050;2023-06-19T12:31:32;6.80;;;6.03;;
80891;SDS011;70343;51.530;5.050;2023-06-19T12:33:58;10.00;;;7.38;;
80891;SDS011;70343;51.530;5.050;2023-06-19T12:36:24;7.93;;;6.20;;
80891;SDS011;70343;51.530;5.050;2023-06-19T12:38:53;6.78;;;5.18;;
80891;SDS011;70343;51.530;5.050;2023-06-19T12:41:20;8.15;;;5.35;;
80891;SDS011;70343;51.530;5.050;2023-06-19T12:43:46;6.63;;;5.97;;
80891;SDS011;70343;51.530;5.050;2023-06-19T12:46:12;6.40;;;5.75;;
80891;SDS011;70343;51.530;5.050;2023-06-19T12:48:37;6.78;;;5.22;;
80891;SDS011;70343;51.530;5.050;2023-06-19T12:51:03;6.40;;;5.78;;
80891;SDS011;70343;51.530;5.050;2023-06-19T12:53:29;10.90;;;6.93;;
80891;SDS011;70343;51.530;5.050;2023-06-19T12:55:58;8.98;;;6.20;;
80891;SDS011;70343;51.530;5.050;2023-06-19T12:58:24;6.55;;;5.88;;
80891;SDS011;70343;51.530;5.050;2023-06-19T13:00:50;6.18;;;5.57;;
80891;SDS011;70343;51.530;5.050;2023-06-19T13:03:16;7.07;;;5.57;;
80891;SDS011;70343;51.530;5.050;2023-06-19T13:05:41;6.90;;;6.03;;
80891;SDS011;70343;51.530;5.050;2023-06-19T13:08:07;6.65;;;5.75;;
80891;SDS011;70343;51.530;5.050;2023-06-19T13:10:33;8.07;;;5.60;;
80891;SDS011;70343;51.530;5.050;2023-06-19T13:12:58;9.43;;;5.82;;
80891;SDS011;70343;51.530;5.050;2023-06-19T13:15:24;9.80;;;5.72;;
80891;SDS011;70343;51.530;5.050;2023-06-19T13:17:50;7.57;;;6.07;;
80891;SDS011;70343;51.530;5.050;2023-06-19T13:20:15;7.25;;;5.30;;
80891;SDS011;70343;51.530;5.050;2023-06-19T13:22:41;6.35;;;5.75;;
80891;SDS011;70343;51.530;5.050;2023-06-19T13:25:07;6.70;;;5.90;;
80891;SDS011;70343;51.530;5.050;2023-06-19T13:27:33;7.78;;;5.32;;
80891;SDS011;70343;51.530;5.050;2023-06-19T13:29:59;5.40;;;4.47;;
80891;SDS011;70343;51.530;5.050;2023-06-19T13:32:26;6.05;;;4.75;;
80891;SDS011;70343;51.530;5.050;2023-06-19T13:34:52;5.38;;;4.75;;
80891;SDS011;70343;51.530;5.050;2023-06-19T13:37:18;6.40;;;5.60;;
80891;SDS011;70343;51.530;5.050;2023-06-19T13:39:44;5.68;;;5.18;;
80891;SDS011;70343;51.530;5.050;2023-06-19T13:42:10;6.13;;;5.03;;
80891;SDS011;70343;51.530;5.050;2023-06-19T13:44:36;5.70;;;4.97;;
80891;SDS011;70343;51.530;5.050;2023-06-19T13:47:02;5.70;;;5.10;;
80891;SDS011;70343;51.530;5.050;2023-06-19T13:49:28;7.68;;;5.03;;
80891;SDS011;70343;51.530;5.050;2023-06-19T13:51:54;6.10;;;5.28;;
80891;SDS011;70343;51.530;5.050;2023-06-19T13:54:20;6.07;;;5.47;;
80891;SDS011;70343;51.530;5.050;2023-06-19T13:56:46;6.10;;;4.97;;
80891;SDS011;70343;51.530;5.050;2023-06-19T13:59:12;6.60;;;5.05;;
80891;SDS011;70343;51.530;5.050;2023-06-19T14:01:38;5.28;;;4.78;;
80891;SDS011;70343;51.530;5.050;2023-06-19T14:04:04;6.93;;;5.25;;
80891;SDS011;70343;51.530;5.050;2023-06-19T14:06:29;6.75;;;6.05;;
80891;SDS011;70343;51.530;5.050;2023-06-19T14:08:55;5.80;;;5.18;;
80891;SDS011;70343;51.530;5.050;2023-06-19T14:11:21;6.00;;;4.97;;
80891;SDS011;70343;51.530;5.050;2023-06-19T14:13:46;4.80;;;4.40;;
80891;SDS011;70343;51.530;5.050;2023-06-19T14:16:12;6.15;;;5.43;;
80891;SDS011;70343;51.530;5.050;2023-06-19T14:18:37;6.60;;;5.00;;
80891;SDS011;70343;51.530;5.050;2023-06-19T14:21:03;5.20;;;4.53;;
80891;SDS011;70343;51.530;5.050;2023-06-19T14:23:28;5.30;;;4.72;;
80891;SDS011;70343;51.530;5.050;2023-06-19T14:25:54;7.95;;;4.80;;
80891;SDS011;70343;51.530;5.050;2023-06-19T14:28:20;5.95;;;3.95;;
80891;SDS011;70343;51.530;5.050;2023-06-19T14:30:45;5.65;;;4.45;;
80891;SDS011;70343;51.530;5.050;2023-06-19T14:33:11;5.05;;;4.40;;
80891;SDS011;70343;51.530;5.050;2023-06-19T14:35:43;5.72;;;4.78;;
80891;SDS011;70343;51.530;5.050;2023-06-19T14:38:11;5.40;;;4.90;;
80891;SDS011;70343;51.530;5.050;2023-06-19T14:40:38;6.05;;;4.93;;
80891;SDS011;70343;51.530;5.050;2023-06-19T14:43:03;6.72;;;4.50;;
80891;SDS011;70343;51.530;5.050;2023-06-19T14:45:30;7.45;;;4.18;;
80891;SDS011;70343;51.530;5.050;2023-06-19T14:47:55;5.68;;;5.15;;
80891;SDS011;70343;51.530;5.050;2023-06-19T14:50:21;7.20;;;5.15;;
80891;SDS011;70343;51.530;5.050;2023-06-19T14:52:47;4.85;;;4.40;;